Jacksonville Naval Air Station
KNIP : rendu visible

Aérodrome :











RETROUVEZ-NOUS SUR...

 
LOGIN :

S'inscrire | Disclaimer

   EN    FR    IT 

 









Légende :    VFR   VFR Marginal   IFR   IFR Intensif   IFR Très Intensif
Visi : 
Plafond : 
>= 8 km
>= 3000ft
5 à 8 km
1000 à 3000 ft
1500m à 5 km
500 à 1000 ft
800 à 1500m
200 à 500 ft
< 800m
< 200 ft
Symboles :   Orages  Brouillard  Fortes neiges  Fortes précipitations  Vent > 20 kt






- Altitude de l'aérodrome : 21 ft


KNIP - Jacksonville Naval Air Station

DERNIER METAR :
  • 212305Z 20004KT 3SM RA BR SCT005 SCT025 BKN045 BKN250 25/24 A2996 RMK AO2 T1 SET P0005 T02500239 $

METARs EXPIRÉS :
  • 212253Z 21005KT 8SM -RA FEW005 BKN025 BKN035 BKN250 A2996 RMK AO2 RAB48 SLP142 T2 SET P0000 $
  • 212153Z 12005KT 7SM FEW005 BKN025 BKN035 BKN250 25/24 A2996 RMK AO2 RAE28 SLP140 T2 SET P0008 T02500239 $
  • 212146Z 10004KT 7SM FEW005 BKN025 BKN035 BKN250 25/24 A2996 RMK AO2 RAE28 T2 SET P0008 T02500239 $
  • 212127Z 07007KT 7SM -RA FEW007 SCT025 BKN035 BKN250 25/24 A2994 RMK AO2 T2 SET P0008 T02500239 $
  • 212112Z 10006KT 2 1/2SM -RA BR BKN013 BKN022 OVC035 25/24 A2996 RMK AO2 T2 SET P0008 T02500239 $
  • 212053Z 12009KT 1 1/2SM +RA BR SCT011 BKN020 OVC035 26/24 A2996 RMK AO2 RAB1955E05B38 SLP142 CB DSNT SE T2 SET P0011 60011 T02560239 56010 $
  • 212045Z 11010KT 1 1/2SM RA BR SCT013 BKN020 BKN035 OVC200 26/23 A2996 RMK AO2 RAB1955E05B38 CB DSNT SE T2 SET P0005 T02560233 $

TAF TAF KNIP
Valide du 21 à 23h jusqu'au 22 à 23h UTC


2123/2223 18006KT 9999 VCTS FEW005 SCT025 BKN035 BKN250 QNH2993INS
TEMPO 2123/2202 VRB20G35KT 1600 TSRA BR SCT010 BKN020CB OVC050
FM220200 20004KT 9999 BKN020 BKN080 QNH2992INS
TEMPO 2209/2213 6000 BR BKN007
FM221400 23008KT 9999 VCTS SCT020CB BKN080 BKN250 QNH2989INS
TEMPO 2216/2220 VRB20G35KT 3200 TSRA BR SCT010 BKN020CB OVC040 T24/2211Z T31/2219Z FN20016



MET'MAP, la Météo Aéronautique d'un coup d'oeil ! - Copyright ORBIFLY Décembre 2007 - Disclaimer

ORBIFLY MET'MAP TEAM :

Programmation & Développement : Alexandra Zaïnal
Conception & Développement : Baudouin d'Aumeries
Co-Programmation & Développement : Marc-Olivier Méhu
Soutien technique & logistique : Manuel Goepfert

Contact : metmap@orbifly.com




SOURCES & CREDITS :

   NOAA       Earth
Advisory